createdAt,value
2018-08-31T00:01:13.334Z,17.88
2018-08-31T00:05:55.441Z,17.84
2018-08-31T00:10:39.264Z,17.80
2018-08-31T00:13:08.555Z,17.75
2018-08-31T00:15:37.148Z,17.73
2018-08-31T00:18:05.387Z,17.73
2018-08-31T00:20:33.643Z,17.73
2018-08-31T00:23:01.811Z,17.72
2018-08-31T00:26:09.815Z,17.72
2018-08-31T00:28:49.985Z,17.72
2018-08-31T00:33:36.312Z,17.72
2018-08-31T00:40:25.882Z,17.69
2018-08-31T00:45:14.047Z,17.63
2018-08-31T00:47:42.735Z,17.64
2018-08-31T00:50:10.958Z,17.66
2018-08-31T00:52:39.156Z,17.69
2018-08-31T00:55:07.666Z,17.69
2018-08-31T00:57:35.843Z,17.69
2018-08-31T01:00:04.050Z,17.68
2018-08-31T01:02:32.276Z,17.67
2018-08-31T01:05:00.483Z,17.65
2018-08-31T01:07:28.739Z,17.65
2018-08-31T01:09:56.924Z,17.66
2018-08-31T01:12:25.190Z,17.67
2018-08-31T01:14:53.359Z,17.68
2018-08-31T01:17:21.554Z,17.68
2018-08-31T01:19:49.744Z,17.70
2018-08-31T01:22:17.908Z,17.71
2018-08-31T01:24:46.128Z,17.72
2018-08-31T01:27:14.299Z,17.72
2018-08-31T01:29:42.531Z,17.74
2018-08-31T01:32:11.211Z,17.76
2018-08-31T01:34:39.720Z,17.73
2018-08-31T01:37:07.893Z,17.72
2018-08-31T01:39:36.127Z,17.72
2018-08-31T01:42:04.407Z,17.73
2018-08-31T01:44:32.811Z,17.71
2018-08-31T01:47:01.026Z,17.72
2018-08-31T01:49:29.241Z,17.72
2018-08-31T01:51:57.454Z,17.72
2018-08-31T01:54:25.667Z,17.72
2018-08-31T01:56:53.931Z,17.68
2018-08-31T01:59:22.163Z,17.67
2018-08-31T02:01:50.320Z,17.67
2018-08-31T02:04:18.627Z,17.66
2018-08-31T02:06:46.750Z,17.67
2018-08-31T02:09:18.403Z,17.65
2018-08-31T02:11:47.112Z,17.65
2018-08-31T02:14:15.284Z,17.62
2018-08-31T02:16:43.484Z,17.64
2018-08-31T02:19:11.651Z,17.65
2018-08-31T02:21:39.854Z,17.66
2018-08-31T02:24:08.282Z,17.67
2018-08-31T02:26:36.755Z,17.69
2018-08-31T02:29:05.061Z,17.69
2018-08-31T02:31:33.222Z,17.69
2018-08-31T02:34:01.430Z,17.69
2018-08-31T02:36:29.816Z,17.70
2018-08-31T02:38:58.044Z,17.68
2018-08-31T02:41:26.214Z,17.68
2018-08-31T02:43:54.451Z,17.68
2018-08-31T02:46:23.261Z,17.70
2018-08-31T02:48:52.263Z,17.71
2018-08-31T02:51:21.046Z,17.72
2018-08-31T02:53:49.206Z,17.73
2018-08-31T02:56:17.430Z,17.73
2018-08-31T02:58:45.612Z,17.73
2018-08-31T03:01:13.798Z,17.71
2018-08-31T03:03:42.134Z,17.71
2018-08-31T03:06:10.398Z,17.71
2018-08-31T03:08:38.585Z,17.71
2018-08-31T03:11:06.887Z,17.70
2018-08-31T03:13:35.054Z,17.69
2018-08-31T03:16:03.267Z,17.69
2018-08-31T03:18:31.507Z,17.68
2018-08-31T03:20:59.775Z,17.66
2018-08-31T03:23:27.967Z,17.67
2018-08-31T03:25:56.155Z,17.66
2018-08-31T03:28:24.338Z,17.67
2018-08-31T03:30:52.710Z,17.67
2018-08-31T03:33:20.870Z,17.65
2018-08-31T03:35:49.059Z,17.62
2018-08-31T03:38:17.236Z,17.62
2018-08-31T03:40:45.473Z,17.61
2018-08-31T03:43:13.683Z,17.59
2018-08-31T03:45:41.890Z,17.58
2018-08-31T03:48:10.171Z,17.57
2018-08-31T03:50:38.345Z,17.57
2018-08-31T03:53:06.570Z,17.55
2018-08-31T03:55:34.834Z,17.53
2018-08-31T03:58:03.031Z,17.51
2018-08-31T04:00:31.249Z,17.49
2018-08-31T04:02:59.396Z,17.48
2018-08-31T04:05:27.612Z,17.48
2018-08-31T04:07:55.854Z,17.50
2018-08-31T04:10:24.037Z,17.51
2018-08-31T04:12:52.242Z,17.52
2018-08-31T04:15:20.427Z,17.55
2018-08-31T04:17:48.667Z,17.57
2018-08-31T04:20:16.911Z,17.57
2018-08-31T04:22:45.105Z,17.59
2018-08-31T04:25:13.271Z,17.59
2018-08-31T04:27:41.483Z,17.59
2018-08-31T04:30:09.726Z,17.59
2018-08-31T04:32:37.911Z,17.61
2018-08-31T04:35:06.092Z,17.61
2018-08-31T04:37:34.283Z,17.61
2018-08-31T04:40:02.547Z,17.62
2018-08-31T04:42:30.726Z,17.61
2018-08-31T04:44:59.163Z,17.60
2018-08-31T04:47:27.347Z,17.60
2018-08-31T04:49:55.548Z,17.58
2018-08-31T04:52:23.829Z,17.57
2018-08-31T04:54:52.087Z,17.55
2018-08-31T04:57:20.292Z,17.56
2018-08-31T04:59:48.443Z,17.55
2018-08-31T05:02:16.635Z,17.55
2018-08-31T05:04:44.992Z,17.53
2018-08-31T05:07:13.291Z,17.52
2018-08-31T05:09:41.478Z,17.52
2018-08-31T05:12:09.701Z,17.50
2018-08-31T05:14:37.883Z,17.50
2018-08-31T05:17:06.090Z,17.50
2018-08-31T05:19:35.266Z,17.50
2018-08-31T05:22:03.564Z,17.48
2018-08-31T05:24:31.771Z,17.47
2018-08-31T05:26:59.937Z,17.47
2018-08-31T05:29:28.110Z,17.48
2018-08-31T05:31:56.295Z,17.47
2018-08-31T05:34:24.547Z,17.47
2018-08-31T05:36:52.755Z,17.49
2018-08-31T05:39:20.940Z,17.50
2018-08-31T05:41:49.146Z,17.53
2018-08-31T05:44:17.407Z,17.55
2018-08-31T05:46:45.662Z,17.55
2018-08-31T05:49:13.815Z,17.56
2018-08-31T05:51:42.022Z,17.57
2018-08-31T05:54:10.267Z,17.57
2018-08-31T05:56:38.580Z,17.60
2018-08-31T05:59:06.827Z,17.61
2018-08-31T06:01:35.087Z,17.62
2018-08-31T06:04:03.263Z,17.61
2018-08-31T06:06:31.519Z,17.61
2018-08-31T06:08:59.754Z,17.57
2018-08-31T06:11:28.042Z,17.52
2018-08-31T06:13:56.271Z,17.53
2018-08-31T06:16:24.459Z,17.55
2018-08-31T06:18:52.635Z,17.56
2018-08-31T06:21:20.895Z,17.56
2018-08-31T06:23:49.087Z,17.55
2018-08-31T06:26:17.296Z,17.59
2018-08-31T06:28:45.558Z,17.66
2018-08-31T06:31:13.784Z,17.70
2018-08-31T06:33:41.972Z,17.74
2018-08-31T06:36:10.143Z,17.79
2018-08-31T06:38:38.435Z,17.82
2018-08-31T06:41:06.635Z,17.85
2018-08-31T06:43:34.832Z,17.91
2018-08-31T06:46:03.050Z,17.98
2018-08-31T06:48:31.257Z,18.02
2018-08-31T06:50:59.451Z,18.03
2018-08-31T06:53:27.632Z,18.07
2018-08-31T06:55:55.830Z,18.08
2018-08-31T06:58:24.019Z,18.09
2018-08-31T07:00:52.696Z,18.11
2018-08-31T07:03:20.925Z,18.13
2018-08-31T07:05:49.126Z,18.15
2018-08-31T07:08:17.282Z,18.15
2018-08-31T07:10:45.488Z,18.19
2018-08-31T07:13:13.727Z,18.22
2018-08-31T07:15:41.870Z,18.25
2018-08-31T07:18:10.067Z,18.26
2018-08-31T07:20:38.275Z,18.31
2018-08-31T07:23:06.534Z,18.34
2018-08-31T07:25:34.727Z,18.34
2018-08-31T07:28:02.910Z,18.35
2018-08-31T07:30:31.114Z,18.38
2018-08-31T07:32:59.305Z,18.41
2018-08-31T07:35:27.606Z,18.43
2018-08-31T07:37:55.804Z,18.43
2018-08-31T07:40:24.017Z,18.46
2018-08-31T07:42:52.200Z,18.47
2018-08-31T07:45:20.387Z,18.49
2018-08-31T07:47:48.694Z,18.51
2018-08-31T07:50:16.840Z,18.58
2018-08-31T07:52:45.220Z,18.67
2018-08-31T07:55:13.421Z,18.69
2018-08-31T07:57:41.612Z,18.71
2018-08-31T08:00:09.822Z,18.75
2018-08-31T08:02:38.162Z,18.75
2018-08-31T08:05:06.365Z,18.82
2018-08-31T08:07:34.580Z,18.85
2018-08-31T08:10:02.846Z,18.95
2018-08-31T08:12:31.105Z,19.00
2018-08-31T08:14:59.384Z,19.03
2018-08-31T08:17:27.582Z,19.05
2018-08-31T08:19:55.755Z,19.09
2018-08-31T08:22:24.150Z,19.18
2018-08-31T08:24:52.447Z,19.23
2018-08-31T08:27:20.646Z,19.25
2018-08-31T08:29:48.842Z,19.30
2018-08-31T08:32:17.030Z,19.34
2018-08-31T08:34:45.630Z,19.40
2018-08-31T08:37:13.959Z,19.48
2018-08-31T08:39:42.256Z,19.51
2018-08-31T08:42:10.469Z,19.56
2018-08-31T08:44:38.606Z,19.56
2018-08-31T08:47:07.207Z,19.60
2018-08-31T08:49:35.466Z,19.64
2018-08-31T08:52:03.715Z,19.69
2018-08-31T08:54:31.907Z,19.73
2018-08-31T08:57:00.087Z,19.80
2018-08-31T08:59:28.306Z,19.84
2018-08-31T09:01:56.518Z,19.88
2018-08-31T09:04:24.754Z,19.92
2018-08-31T09:06:52.980Z,19.93
2018-08-31T09:09:21.156Z,19.97
2018-08-31T09:11:49.400Z,19.99
2018-08-31T09:14:17.563Z,20.02
2018-08-31T09:16:45.807Z,20.03
2018-08-31T09:19:13.989Z,20.01
2018-08-31T09:21:42.160Z,20.02
2018-08-31T09:24:10.359Z,20.04
2018-08-31T09:26:38.570Z,20.05
2018-08-31T09:29:06.788Z,20.02
2018-08-31T09:31:34.934Z,20.00
2018-08-31T09:34:03.406Z,20.04
2018-08-31T09:36:31.607Z,20.07
2018-08-31T09:38:59.875Z,20.11
2018-08-31T09:41:28.057Z,20.14
2018-08-31T09:43:56.246Z,20.15
2018-08-31T09:46:24.408Z,20.17
2018-08-31T09:48:52.647Z,20.18
2018-08-31T09:51:20.923Z,20.17
2018-08-31T09:53:49.141Z,20.16
2018-08-31T09:56:17.341Z,20.15
2018-08-31T09:58:45.543Z,20.11
2018-08-31T10:01:19.131Z,20.05
2018-08-31T10:03:47.348Z,20.11
2018-08-31T10:06:15.534Z,20.16
2018-08-31T10:08:43.735Z,20.18
2018-08-31T10:11:11.934Z,20.23
2018-08-31T10:13:40.203Z,20.28
2018-08-31T10:16:08.820Z,20.31
2018-08-31T10:18:37.079Z,20.35
2018-08-31T10:21:05.555Z,20.45
2018-08-31T10:23:33.755Z,20.54
2018-08-31T10:26:01.998Z,20.62
2018-08-31T10:28:30.244Z,20.68
2018-08-31T10:30:58.440Z,20.71
2018-08-31T10:33:26.652Z,20.79
2018-08-31T10:35:54.819Z,20.86
2018-08-31T10:38:23.071Z,20.92
2018-08-31T10:40:51.325Z,21.01
2018-08-31T10:43:19.547Z,21.05
2018-08-31T10:45:47.775Z,21.12
2018-08-31T10:48:16.043Z,21.21
2018-08-31T10:50:44.306Z,21.35
2018-08-31T10:53:12.564Z,21.47
2018-08-31T10:55:40.780Z,21.59
2018-08-31T10:58:09.095Z,21.68
2018-08-31T11:00:37.327Z,21.79
2018-08-31T11:03:05.605Z,21.96
2018-08-31T11:05:33.815Z,22.14
2018-08-31T11:08:02.022Z,22.32
2018-08-31T11:10:30.217Z,22.48
2018-08-31T11:12:58.419Z,22.64
2018-08-31T11:15:26.627Z,22.80
2018-08-31T11:17:54.940Z,22.93
2018-08-31T11:20:23.146Z,23.07
2018-08-31T11:22:51.358Z,23.15
2018-08-31T11:25:19.643Z,23.28
2018-08-31T11:27:47.935Z,23.32
2018-08-31T11:30:16.198Z,23.20
2018-08-31T11:32:44.592Z,23.02
2018-08-31T11:35:12.824Z,22.76
2018-08-31T11:37:41.060Z,22.53
2018-08-31T11:40:09.287Z,22.32
2018-08-31T11:42:37.531Z,22.15
2018-08-31T11:45:06.087Z,21.98
2018-08-31T11:47:34.275Z,21.89
2018-08-31T11:50:02.488Z,21.84
2018-08-31T11:52:30.793Z,21.93
2018-08-31T11:54:59.349Z,22.18
2018-08-31T11:57:27.607Z,22.49
2018-08-31T11:59:55.901Z,22.76
2018-08-31T12:02:24.116Z,22.97
2018-08-31T12:04:52.323Z,23.11
2018-08-31T12:07:20.554Z,23.25
2018-08-31T12:09:48.875Z,23.31
2018-08-31T12:12:17.126Z,23.30
2018-08-31T12:14:45.439Z,23.12
2018-08-31T12:17:13.657Z,22.89
2018-08-31T12:19:41.983Z,22.68
2018-08-31T12:22:10.256Z,22.53
2018-08-31T12:24:38.769Z,22.39
2018-08-31T12:27:07.022Z,22.29
2018-08-31T12:29:35.241Z,22.24
2018-08-31T12:32:21.464Z,22.16
2018-08-31T12:34:49.643Z,22.13
2018-08-31T12:37:18.162Z,22.10
2018-08-31T12:39:46.382Z,22.06
2018-08-31T12:42:14.743Z,22.03
2018-08-31T12:44:43.020Z,22.01
2018-08-31T12:47:11.298Z,21.98
2018-08-31T12:49:39.542Z,22.00
2018-08-31T12:52:07.730Z,22.00
2018-08-31T12:54:36.115Z,22.02
2018-08-31T12:57:04.642Z,22.09
2018-08-31T12:59:32.847Z,22.20
2018-08-31T13:02:01.041Z,22.36
2018-08-31T13:04:29.401Z,22.50
2018-08-31T13:06:57.789Z,22.67
2018-08-31T13:09:26.023Z,22.87
2018-08-31T13:11:54.234Z,23.05
2018-08-31T13:14:22.429Z,23.24
2018-08-31T13:16:50.663Z,23.40
2018-08-31T13:19:18.883Z,23.55
2018-08-31T13:21:47.130Z,23.73
2018-08-31T13:24:15.331Z,23.85
2018-08-31T13:26:43.594Z,23.94
2018-08-31T13:29:11.765Z,24.02
2018-08-31T13:31:39.994Z,24.05
2018-08-31T13:34:08.226Z,24.05
2018-08-31T13:36:36.476Z,24.03
2018-08-31T13:39:06.266Z,23.96
2018-08-31T13:41:34.451Z,23.93
2018-08-31T13:44:02.736Z,23.90
2018-08-31T13:46:30.943Z,23.86
2018-08-31T13:48:59.134Z,23.81
2018-08-31T13:51:27.318Z,23.79
2018-08-31T13:53:55.518Z,23.80
2018-08-31T13:56:23.882Z,23.82
2018-08-31T13:58:52.156Z,23.84
2018-08-31T14:01:20.373Z,23.94
2018-08-31T14:03:48.649Z,24.09
2018-08-31T14:06:16.833Z,24.27
2018-08-31T14:08:45.051Z,24.43
2018-08-31T14:11:13.289Z,24.57
2018-08-31T14:13:41.507Z,24.69
2018-08-31T14:16:09.773Z,24.80
2018-08-31T14:18:38.111Z,24.90
2018-08-31T14:21:06.434Z,24.95
2018-08-31T14:23:34.585Z,25.01
2018-08-31T14:26:02.843Z,25.02
2018-08-31T14:28:31.048Z,25.02
2018-08-31T14:30:59.288Z,25.00
2018-08-31T14:33:27.483Z,25.01
2018-08-31T14:35:55.833Z,24.92
2018-08-31T14:38:24.266Z,24.80
2018-08-31T14:40:52.595Z,24.64
2018-08-31T14:43:20.800Z,24.48
2018-08-31T14:45:49.112Z,24.28
2018-08-31T14:48:17.501Z,24.07
2018-08-31T14:50:45.784Z,23.89
2018-08-31T14:53:14.119Z,23.72
2018-08-31T14:55:42.508Z,23.57
2018-08-31T14:58:10.708Z,23.41
2018-08-31T15:00:38.928Z,23.27
2018-08-31T15:03:07.197Z,23.19
2018-08-31T15:05:35.435Z,23.12
2018-08-31T15:08:03.979Z,23.05
2018-08-31T15:10:32.194Z,22.96
2018-08-31T15:13:00.466Z,22.98
2018-08-31T15:15:28.730Z,22.97
2018-08-31T15:17:56.963Z,22.97
2018-08-31T15:20:25.179Z,22.96
2018-08-31T15:22:53.403Z,22.92
2018-08-31T15:25:21.747Z,22.97
2018-08-31T15:27:49.949Z,22.96
2018-08-31T15:30:18.199Z,22.94
2018-08-31T15:32:46.492Z,22.90
2018-08-31T15:35:14.779Z,22.87
2018-08-31T15:37:42.995Z,22.84
2018-08-31T15:40:11.323Z,22.82
2018-08-31T15:42:39.650Z,22.82
2018-08-31T15:45:07.964Z,22.82
2018-08-31T15:47:36.218Z,22.76
2018-08-31T15:50:04.471Z,22.72
2018-08-31T15:52:32.671Z,22.69
2018-08-31T15:55:00.932Z,22.61
2018-08-31T15:57:29.137Z,22.55
2018-08-31T15:59:57.474Z,22.51
2018-08-31T16:02:25.695Z,22.51
2018-08-31T16:04:53.883Z,22.52
2018-08-31T16:07:22.159Z,22.52
2018-08-31T16:09:50.435Z,22.55
2018-08-31T16:12:18.807Z,22.56
2018-08-31T16:14:46.998Z,22.60
2018-08-31T16:17:15.331Z,22.61
2018-08-31T16:19:43.670Z,22.63
2018-08-31T16:22:11.926Z,22.65
2018-08-31T16:24:40.127Z,22.61
2018-08-31T16:27:08.387Z,22.59
2018-08-31T16:29:36.586Z,22.52
2018-08-31T16:32:04.824Z,22.39
2018-08-31T16:34:33.031Z,22.32
2018-08-31T16:37:01.378Z,22.23
2018-08-31T16:39:29.631Z,22.21
2018-08-31T16:41:57.832Z,22.18
2018-08-31T16:44:26.095Z,22.12
2018-08-31T16:46:54.426Z,22.08
2018-08-31T16:49:22.662Z,22.05
2018-08-31T16:51:50.858Z,22.01
2018-08-31T16:54:19.107Z,21.99
2018-08-31T16:56:47.363Z,21.97
2018-08-31T16:59:15.555Z,21.95
2018-08-31T17:01:43.754Z,21.93
2018-08-31T17:04:11.979Z,21.92
2018-08-31T17:06:40.469Z,21.93
2018-08-31T17:09:10.623Z,21.92
2018-08-31T17:11:38.846Z,21.90
2018-08-31T17:14:07.084Z,21.87
2018-08-31T17:16:35.321Z,21.85
2018-08-31T17:19:03.611Z,21.78
2018-08-31T17:21:31.851Z,21.74
2018-08-31T17:24:00.369Z,21.69
2018-08-31T17:26:33.951Z,21.66
2018-08-31T17:29:07.562Z,21.64
2018-08-31T17:31:41.191Z,21.63
2018-08-31T17:34:14.910Z,21.57
2018-08-31T17:36:48.310Z,21.48
2018-08-31T17:39:16.526Z,21.40
2018-08-31T17:41:44.771Z,21.35
2018-08-31T17:44:12.984Z,21.31
2018-08-31T17:46:41.622Z,21.26
2018-08-31T17:49:09.800Z,21.23
2018-08-31T17:51:38.036Z,21.18
2018-08-31T17:54:06.335Z,21.14
2018-08-31T17:56:34.578Z,21.11
2018-08-31T17:59:02.909Z,21.04
2018-08-31T18:01:31.108Z,21.01
2018-08-31T18:03:59.357Z,20.96
2018-08-31T18:06:27.490Z,20.90
2018-08-31T18:08:55.723Z,20.86
2018-08-31T18:11:23.923Z,20.82
2018-08-31T18:13:52.099Z,20.77
2018-08-31T18:16:20.355Z,20.71
2018-08-31T18:18:48.535Z,20.67
2018-08-31T18:21:17.477Z,20.61
2018-08-31T18:23:45.698Z,20.57
2018-08-31T18:26:13.991Z,20.53
2018-08-31T18:28:42.258Z,20.49
2018-08-31T18:31:10.530Z,20.45
2018-08-31T18:33:38.704Z,20.38
2018-08-31T18:36:06.982Z,20.31
2018-08-31T18:38:35.172Z,20.25
2018-08-31T18:41:03.413Z,20.18
2018-08-31T18:43:31.717Z,20.12
2018-08-31T18:45:59.983Z,20.06
2018-08-31T18:48:28.248Z,19.99
2018-08-31T18:50:56.436Z,19.93
2018-08-31T18:53:24.647Z,19.86
2018-08-31T18:55:52.838Z,19.79
2018-08-31T18:58:21.078Z,19.72
2018-08-31T19:00:49.291Z,19.65
2018-08-31T19:03:17.486Z,19.60
2018-08-31T19:05:45.747Z,19.54
2018-08-31T19:08:14.035Z,19.47
2018-08-31T19:10:42.294Z,19.41
2018-08-31T19:13:10.499Z,19.36
2018-08-31T19:15:38.732Z,19.33
2018-08-31T19:18:07.148Z,19.27
2018-08-31T19:20:35.334Z,19.22
2018-08-31T19:23:03.540Z,19.17
2018-08-31T19:25:31.884Z,19.12
2018-08-31T19:28:00.150Z,19.09
2018-08-31T19:30:28.368Z,19.03
2018-08-31T19:32:56.558Z,19.01
2018-08-31T19:35:24.763Z,18.99
2018-08-31T19:37:52.930Z,18.98
2018-08-31T19:40:21.095Z,18.96
2018-08-31T19:42:49.287Z,18.95
2018-08-31T19:45:17.810Z,18.93
2018-08-31T19:47:46.066Z,18.92
2018-08-31T19:50:14.334Z,18.90
2018-08-31T19:52:42.536Z,18.88
2018-08-31T19:55:10.919Z,18.88
2018-08-31T19:57:39.104Z,18.84
2018-08-31T20:00:07.464Z,18.80
2018-08-31T20:02:36.387Z,18.77
2018-08-31T20:05:04.620Z,18.75
2018-08-31T20:07:32.790Z,18.73
2018-08-31T20:10:01.015Z,18.70
2018-08-31T20:12:29.288Z,18.68
2018-08-31T20:14:59.328Z,18.68
2018-08-31T20:17:27.600Z,18.69
2018-08-31T20:19:55.842Z,18.68
2018-08-31T20:22:25.035Z,18.66
2018-08-31T20:24:53.294Z,18.61
2018-08-31T20:27:21.579Z,18.59
2018-08-31T20:29:49.855Z,18.55
2018-08-31T20:32:18.115Z,18.52
2018-08-31T20:34:46.504Z,18.53
2018-08-31T20:37:14.750Z,18.52
2018-08-31T20:39:43.115Z,18.51
2018-08-31T20:42:11.335Z,18.50
2018-08-31T20:44:39.556Z,18.46
2018-08-31T20:47:08.387Z,18.42
2018-08-31T20:49:37.006Z,18.38
2018-08-31T20:52:05.594Z,18.33
2018-08-31T20:54:33.878Z,18.28
2018-08-31T20:57:02.261Z,18.24
2018-08-31T20:59:30.575Z,18.20
2018-08-31T21:01:58.827Z,18.13
2018-08-31T21:04:27.018Z,18.11
2018-08-31T21:06:55.242Z,18.09
2018-08-31T21:09:23.475Z,18.06
2018-08-31T21:11:51.710Z,18.05
2018-08-31T21:14:19.919Z,18.03
2018-08-31T21:16:48.171Z,18.02
2018-08-31T21:19:16.424Z,18.02
2018-08-31T21:21:44.727Z,18.00
2018-08-31T21:24:12.896Z,17.99
2018-08-31T21:26:41.098Z,17.98
2018-08-31T21:29:11.458Z,17.96
2018-08-31T21:31:39.676Z,17.94
2018-08-31T21:34:08.275Z,17.92
2018-08-31T21:36:36.523Z,17.88
2018-08-31T21:39:06.012Z,17.86
2018-08-31T21:41:34.222Z,17.84
2018-08-31T21:44:02.415Z,17.79
2018-08-31T21:46:30.662Z,17.75
2018-08-31T21:48:58.858Z,17.72
2018-08-31T21:51:27.055Z,17.69
2018-08-31T21:53:55.477Z,17.65
2018-08-31T21:56:23.775Z,17.63
2018-08-31T21:58:52.087Z,17.62
2018-08-31T22:01:25.740Z,17.56
2018-08-31T22:03:53.959Z,17.56
2018-08-31T22:06:22.255Z,17.53
2018-08-31T22:08:50.427Z,17.50
2018-08-31T22:11:18.680Z,17.46
2018-08-31T22:13:46.852Z,17.43
2018-08-31T22:16:15.074Z,17.40
2018-08-31T22:18:43.371Z,17.38
2018-08-31T22:21:11.573Z,17.36
2018-08-31T22:23:39.751Z,17.35
2018-08-31T22:26:07.938Z,17.32
2018-08-31T22:28:36.271Z,17.28
2018-08-31T22:31:04.530Z,17.24
2018-08-31T22:33:32.716Z,17.21
2018-08-31T22:36:00.910Z,17.18
2018-08-31T22:38:29.123Z,17.15
2018-08-31T22:40:57.315Z,17.12
2018-08-31T22:43:30.901Z,17.11
2018-08-31T22:45:59.158Z,17.11
2018-08-31T22:48:27.367Z,17.09
2018-08-31T22:50:55.611Z,17.07
2018-08-31T22:53:23.846Z,17.06
2018-08-31T22:55:52.068Z,17.05
2018-08-31T22:58:20.335Z,17.04
2018-08-31T23:00:48.662Z,17.05
2018-08-31T23:03:16.968Z,17.03
2018-08-31T23:05:45.262Z,17.03
2018-08-31T23:08:13.455Z,17.01
2018-08-31T23:10:41.727Z,17.01
2018-08-31T23:13:09.939Z,17.01
2018-08-31T23:15:38.256Z,17.01
2018-08-31T23:18:07.296Z,17.00
2018-08-31T23:20:35.703Z,17.00
2018-08-31T23:23:09.308Z,17.01
2018-08-31T23:25:42.758Z,17.02
2018-08-31T23:28:10.963Z,17.01
2018-08-31T23:30:39.276Z,16.98
